TAF and METAR

No METAR available for Longana Airport

TAF for Longana Airport

TAF NVSG 251000Z 2512/2612 12010KT 9999 SCT020 OVC110 INTER 2512/2518 7000 SHRA BKN018 OVC040
Report created 25. sep 12:00

between 25. sep 14:00 - 26. sep 14:00

wind 10 knots from ESE (120°) visibility > 10km scattered clouds (~50% cover) at 2000 feet overcast at 11000 feet